BAW219V EGLL-KDEN
Flight info
| Callsign | BAW219V |
|---|---|
| Flight time | N/A |
| Altitude | 34000 |
| Route | CPT DCT DIDZA N14 OKSAW DCT BIBPE DCT OKTAD DCT MEDOG DCT KRAGY DCT PEMOB DCT VATRY DCT RESNO/M084F340 DCT 56N020W 58N030W 59N040W 59N050W/M084F360 DCT VESMI/N0497F360 DCT LOMTA DCT 56N070W/N0497F380 DCT VIRSO DCT MISAX DCT 50N091W DCT KP21G DCT IRILE DCT KP06C DCT GILTE DCT NYTRO AALLE4 |
| Aircraft | A35K/H-SDE2E3GHIJ3J4J5LM1ORWXY/LB1D1 |
Departure
| Time | 2026-05-05 12:40 |
|---|---|
| Airport | London Heathrow Airport (EGLL) |
Arrival
| Time | N/A |
|---|---|
| Airport | Denver International Airport (KDEN) |
| Time | Latitude | Longitude | Altitude | Speed | Heading |
|---|---|---|---|---|---|
| 2026-05-05 11:45 | 51.47123 | -0.47729 | 92 ft | 0 kts | 89° |
| 2026-05-05 11:45 | 51.47124 | -0.47725 | 92 ft | 0 kts | 89° |
| 2026-05-05 12:26 | 51.47123 | -0.47764 | 93 ft | 4 kts | 89° |
| 2026-05-05 12:27 | 51.47123 | -0.47806 | 94 ft | 3 kts | 89° |
| 2026-05-05 12:27 | 51.47124 | -0.47841 | 93 ft | 4 kts | 111° |
| 2026-05-05 12:27 | 51.47139 | -0.47868 | 95 ft | 4 kts | 169° |
| 2026-05-05 12:27 | 51.47164 | -0.47870 | 94 ft | 4 kts | 179° |
| 2026-05-05 12:28 | 51.47184 | -0.47871 | 94 ft | 0 kts | 179° |
| 2026-05-05 12:32 | 51.47183 | -0.47871 | 92 ft | 0 kts | 179° |
| 2026-05-05 12:32 | 51.47172 | -0.47870 | 92 ft | 3 kts | 178° |
| 2026-05-05 12:32 | 51.47146 | -0.47868 | 94 ft | 5 kts | 175° |
| 2026-05-05 12:33 | 51.47105 | -0.47865 | 96 ft | 7 kts | 179° |
| 2026-05-05 12:33 | 51.47051 | -0.47864 | 93 ft | 9 kts | 179° |
| 2026-05-05 12:33 | 51.46984 | -0.47864 | 94 ft | 11 kts | 180° |
| 2026-05-05 12:33 | 51.46905 | -0.47868 | 92 ft | 12 kts | 180° |
| 2026-05-05 12:34 | 51.46817 | -0.47868 | 94 ft | 13 kts | 179° |
| 2026-05-05 12:34 | 51.46759 | -0.47916 | 97 ft | 8 kts | 241° |
| 2026-05-05 12:34 | 51.46745 | -0.48012 | 93 ft | 10 kts | 263° |
| 2026-05-05 12:34 | 51.46743 | -0.48055 | 95 ft | 0 kts | 266° |
| 2026-05-05 12:35 | 51.46743 | -0.48057 | 92 ft | 1 kts | 266° |
| 2026-05-05 12:35 | 51.46742 | -0.48079 | 92 ft | 3 kts | 266° |
| 2026-05-05 12:35 | 51.46741 | -0.48125 | 93 ft | 5 kts | 266° |
| 2026-05-05 12:36 | 51.46738 | -0.48193 | 92 ft | 7 kts | 267° |
| 2026-05-05 12:36 | 51.46737 | -0.48281 | 92 ft | 9 kts | 272° |
| 2026-05-05 12:36 | 51.46740 | -0.48399 | 93 ft | 12 kts | 272° |
| 2026-05-05 12:36 | 51.46742 | -0.48538 | 93 ft | 13 kts | 270° |
| 2026-05-05 12:37 | 51.46735 | -0.48688 | 92 ft | 13 kts | 250° |
| 2026-05-05 12:37 | 51.46669 | -0.48744 | 92 ft | 12 kts | 187° |
| 2026-05-05 12:37 | 51.46629 | -0.48755 | 92 ft | 0 kts | 192° |
| 2026-05-05 12:38 | 51.46624 | -0.48756 | 93 ft | 2 kts | 192° |
| 2026-05-05 12:38 | 51.46576 | -0.48773 | 93 ft | 14 kts | 190° |
| 2026-05-05 12:39 | 51.46489 | -0.48718 | 92 ft | 14 kts | 121° |
| 2026-05-05 12:39 | 51.46481 | -0.48628 | 93 ft | 0 kts | 90° |
| 2026-05-05 12:39 | 51.46481 | -0.48550 | 92 ft | 32 kts | 90° |
| 2026-05-05 12:39 | 51.46485 | -0.47690 | 96 ft | 120 kts | 89° |
| 2026-05-05 12:40 | 51.46485 | -0.45927 | 100 ft | 193 kts | 89° |
| 2026-05-05 12:40 | 51.46507 | -0.43652 | 792 ft | 213 kts | 87° |
| 2026-05-05 12:40 | 51.46417 | -0.41219 | 1777 ft | 227 kts | 100° |
| 2026-05-05 12:40 | 51.45716 | -0.38906 | 2123 ft | 247 kts | 132° |
| 2026-05-05 12:41 | 51.44186 | -0.37473 | 2555 ft | 261 kts | 166° |
| 2026-05-05 12:41 | 51.42389 | -0.37527 | 3178 ft | 267 kts | 197° |
| 2026-05-05 12:41 | 51.40827 | -0.39151 | 3807 ft | 269 kts | 232° |
| 2026-05-05 12:41 | 51.40091 | -0.41857 | 4459 ft | 268 kts | 265° |
| 2026-05-05 12:42 | 51.40221 | -0.44802 | 5166 ft | 266 kts | 282° |
| 2026-05-05 12:42 | 51.40574 | -0.47687 | 5820 ft | 269 kts | 283° |
| 2026-05-05 12:42 | 51.40942 | -0.50639 | 6451 ft | 271 kts | 283° |
| 2026-05-05 12:42 | 51.41299 | -0.53628 | 7114 ft | 275 kts | 282° |
| 2026-05-05 12:43 | 51.41651 | -0.56658 | 7762 ft | 278 kts | 282° |
| 2026-05-05 12:43 | 51.42003 | -0.59719 | 8407 ft | 281 kts | 281° |
| 2026-05-05 12:43 | 51.42352 | -0.62817 | 9049 ft | 284 kts | 281° |
| 2026-05-05 12:43 | 51.42702 | -0.65956 | 9673 ft | 288 kts | 281° |
| 2026-05-05 12:44 | 51.43057 | -0.69128 | 10246 ft | 293 kts | 281° |
| 2026-05-05 12:44 | 51.43424 | -0.72425 | 10594 ft | 307 kts | 281° |
| 2026-05-05 12:44 | 51.43808 | -0.75870 | 10909 ft | 321 kts | 281° |
| 2026-05-05 12:44 | 51.44238 | -0.79452 | 11227 ft | 334 kts | 282° |
| 2026-05-05 12:45 | 51.44700 | -0.83176 | 11456 ft | 349 kts | 282° |
| 2026-05-05 12:45 | 51.45182 | -0.87096 | 11377 ft | 364 kts | 282° |
| 2026-05-05 12:45 | 51.45680 | -0.91099 | 11187 ft | 366 kts | 283° |
| 2026-05-05 12:45 | 51.46478 | -0.94957 | 11024 ft | 364 kts | 294° |
| 2026-05-05 12:46 | 51.47517 | -0.98649 | 10966 ft | 363 kts | 296° |
| 2026-05-05 12:46 | 51.48645 | -1.02264 | 10964 ft | 363 kts | 298° |
| 2026-05-05 12:46 | 51.49823 | -1.05844 | 10960 ft | 362 kts | 299° |
| 2026-05-05 12:46 | 51.51019 | -1.09400 | 10963 ft | 362 kts | 299° |
| 2026-05-05 12:47 | 51.52223 | -1.12956 | 10962 ft | 362 kts | 299° |
| 2026-05-05 12:47 | 51.53423 | -1.16520 | 10961 ft | 362 kts | 299° |
| 2026-05-05 12:47 | 51.54609 | -1.20082 | 10962 ft | 362 kts | 298° |
| 2026-05-05 12:47 | 51.55793 | -1.23656 | 10962 ft | 362 kts | 298° |
| 2026-05-05 12:48 | 51.56976 | -1.27244 | 11086 ft | 365 kts | 298° |
| 2026-05-05 12:48 | 51.58150 | -1.30818 | 11654 ft | 366 kts | 298° |
| 2026-05-05 12:48 | 51.59353 | -1.34489 | 12296 ft | 366 kts | 298° |
| 2026-05-05 12:48 | 51.60525 | -1.38071 | 12840 ft | 368 kts | 298° |
| 2026-05-05 12:49 | 51.61723 | -1.41738 | 13330 ft | 372 kts | 298° |
| 2026-05-05 12:49 | 51.62929 | -1.45437 | 13840 ft | 374 kts | 297° |
| 2026-05-05 12:49 | 51.64143 | -1.49165 | 14335 ft | 377 kts | 297° |
| 2026-05-05 12:49 | 51.65365 | -1.52922 | 14800 ft | 380 kts | 297° |
| 2026-05-05 12:50 | 51.66595 | -1.56710 | 15313 ft | 382 kts | 297° |
| 2026-05-05 12:50 | 51.67831 | -1.60518 | 15781 ft | 385 kts | 297° |
| 2026-05-05 12:50 | 51.69074 | -1.64361 | 16241 ft | 388 kts | 297° |
| 2026-05-05 12:50 | 51.69815 | -1.66985 | 16552 ft | 390 kts | 290° |
| 2026-05-05 12:51 | 51.70532 | -1.71205 | 17048 ft | 391 kts | 281° |
| 2026-05-05 12:51 | 51.71013 | -1.75532 | 17489 ft | 394 kts | 278° |
| 2026-05-05 12:51 | 51.71378 | -1.79925 | 17944 ft | 396 kts | 276° |
| 2026-05-05 12:51 | 51.71741 | -1.84343 | 18390 ft | 398 kts | 279° |
| 2026-05-05 12:52 | 51.72258 | -1.88742 | 18842 ft | 401 kts | 281° |
| 2026-05-05 12:52 | 51.72836 | -1.93151 | 19288 ft | 403 kts | 281° |
| 2026-05-05 12:52 | 51.73458 | -1.97564 | 19716 ft | 405 kts | 282° |
| 2026-05-05 12:52 | 51.74109 | -2.02013 | 20130 ft | 408 kts | 282° |
| 2026-05-05 12:53 | 51.74774 | -2.06478 | 20546 ft | 410 kts | 282° |
| 2026-05-05 12:53 | 51.75445 | -2.10965 | 20961 ft | 413 kts | 282° |
| 2026-05-05 12:53 | 51.76119 | -2.15493 | 21362 ft | 415 kts | 282° |
| 2026-05-05 12:53 | 51.76792 | -2.20045 | 21732 ft | 418 kts | 282° |
| 2026-05-05 12:54 | 51.78128 | -2.29172 | 22487 ft | 423 kts | 282° |
| 2026-05-05 12:54 | 51.78802 | -2.33807 | 22868 ft | 425 kts | 282° |
| 2026-05-05 12:54 | 51.79477 | -2.38465 | 23227 ft | 427 kts | 281° |
| 2026-05-05 12:55 | 51.80154 | -2.43156 | 23585 ft | 429 kts | 281° |
| 2026-05-05 12:55 | 51.80832 | -2.47868 | 23924 ft | 432 kts | 281° |
| 2026-05-05 12:55 | 51.81511 | -2.52605 | 24279 ft | 434 kts | 281° |
| 2026-05-05 12:55 | 51.82195 | -2.57389 | 24632 ft | 436 kts | 281° |
| 2026-05-05 12:56 | 51.82861 | -2.62184 | 24988 ft | 439 kts | 281° |
| 2026-05-05 12:56 | 51.83512 | -2.67007 | 25341 ft | 441 kts | 280° |
| 2026-05-05 12:56 | 51.84159 | -2.71863 | 25703 ft | 443 kts | 280° |
| 2026-05-05 12:56 | 51.84808 | -2.76749 | 26045 ft | 445 kts | 280° |
| 2026-05-05 12:57 | 51.85463 | -2.81666 | 26390 ft | 448 kts | 280° |
| 2026-05-05 12:57 | 51.86121 | -2.86597 | 26740 ft | 450 kts | 280° |
| 2026-05-05 12:57 | 51.86782 | -2.91558 | 27089 ft | 452 kts | 280° |
| 2026-05-05 12:57 | 51.87446 | -2.96553 | 27445 ft | 454 kts | 280° |
| 2026-05-05 12:58 | 51.88111 | -3.01558 | 27766 ft | 457 kts | 280° |
| 2026-05-05 12:58 | 51.88779 | -3.06606 | 28097 ft | 459 kts | 280° |
| 2026-05-05 12:58 | 51.89446 | -3.11671 | 28434 ft | 461 kts | 280° |
| 2026-05-05 12:58 | 51.90115 | -3.16766 | 28741 ft | 464 kts | 280° |
| 2026-05-05 12:59 | 51.90783 | -3.21883 | 29073 ft | 466 kts | 280° |
| 2026-05-05 12:59 | 51.91453 | -3.27033 | 29373 ft | 468 kts | 280° |
| 2026-05-05 12:59 | 51.92124 | -3.32203 | 29664 ft | 470 kts | 280° |
| 2026-05-05 13:00 | 51.93470 | -3.42623 | 30212 ft | 474 kts | 280° |
| 2026-05-05 13:00 | 51.94134 | -3.47804 | 30485 ft | 476 kts | 280° |
| 2026-05-05 13:01 | 51.96161 | -3.63683 | 31240 ft | 482 kts | 280° |
| 2026-05-05 13:01 | 51.96833 | -3.69008 | 31473 ft | 484 kts | 280° |
| 2026-05-05 13:01 | 51.97510 | -3.74397 | 31691 ft | 487 kts | 281° |
| 2026-05-05 13:01 | 51.98184 | -3.79784 | 31980 ft | 487 kts | 281° |
| 2026-05-05 13:02 | 51.98855 | -3.85172 | 32296 ft | 486 kts | 281° |
| 2026-05-05 13:02 | 51.99525 | -3.90558 | 32584 ft | 486 kts | 281° |
| 2026-05-05 13:02 | 52.00191 | -3.95938 | 32866 ft | 486 kts | 281° |
| 2026-05-05 13:02 | 52.00854 | -4.01319 | 33151 ft | 486 kts | 281° |
| 2026-05-05 13:03 | 52.01515 | -4.06698 | 33422 ft | 486 kts | 281° |
| 2026-05-05 13:03 | 52.02172 | -4.12065 | 33664 ft | 486 kts | 281° |
| 2026-05-05 13:03 | 52.02828 | -4.17450 | 33920 ft | 486 kts | 281° |
| 2026-05-05 13:03 | 52.03483 | -4.22846 | 34017 ft | 488 kts | 281° |
| 2026-05-05 13:04 | 52.04788 | -4.33659 | 34031 ft | 488 kts | 281° |
| 2026-05-05 13:04 | 52.06083 | -4.44467 | 34030 ft | 487 kts | 281° |
| 2026-05-05 13:05 | 52.07358 | -4.55204 | 34028 ft | 487 kts | 281° |
| 2026-05-05 13:05 | 52.08630 | -4.65994 | 34022 ft | 486 kts | 281° |
| 2026-05-05 13:06 | 52.09891 | -4.76795 | 34023 ft | 485 kts | 281° |
| 2026-05-05 13:06 | 52.11138 | -4.87575 | 34032 ft | 485 kts | 281° |
| 2026-05-05 13:07 | 52.12380 | -4.98341 | 34034 ft | 484 kts | 281° |
| 2026-05-05 13:07 | 52.14467 | -5.08705 | 34031 ft | 482 kts | 297° |
| 2026-05-05 13:08 | 52.18351 | -5.17533 | 34043 ft | 481 kts | 316° |
| 2026-05-05 13:08 | 52.23713 | -5.23818 | 34055 ft | 480 kts | 332° |
| 2026-05-05 13:09 | 52.29652 | -5.28819 | 34053 ft | 480 kts | 334° |
| 2026-05-05 13:09 | 52.35637 | -5.33644 | 34063 ft | 479 kts | 334° |
| 2026-05-05 13:10 | 52.41611 | -5.38509 | 34066 ft | 479 kts | 333° |
| 2026-05-05 13:10 | 52.47577 | -5.43441 | 34064 ft | 480 kts | 333° |
| 2026-05-05 13:11 | 52.53241 | -5.49200 | 34073 ft | 480 kts | 320° |
| 2026-05-05 13:11 | 52.57641 | -5.57384 | 34270 ft | 481 kts | 302° |
| 2026-05-05 13:12 | 52.59335 | -5.62122 | 34605 ft | 479 kts | 299° |
| 2026-05-05 13:12 | 52.60902 | -5.66943 | 34891 ft | 477 kts | 297° |
| 2026-05-05 13:12 | 52.62409 | -5.71822 | 35124 ft | 477 kts | 297° |
| 2026-05-05 13:12 | 52.63892 | -5.76716 | 35366 ft | 477 kts | 297° |
| 2026-05-05 13:13 | 52.65370 | -5.81602 | 35571 ft | 477 kts | 297° |
| 2026-05-05 13:13 | 52.66855 | -5.86489 | 35767 ft | 477 kts | 297° |
| 2026-05-05 13:13 | 52.68349 | -5.91375 | 35965 ft | 477 kts | 297° |
| 2026-05-05 13:13 | 52.69850 | -5.96264 | 36066 ft | 479 kts | 297° |
| 2026-05-05 13:14 | 52.72887 | -6.06142 | 36075 ft | 483 kts | 297° |
| 2026-05-05 13:14 | 52.75916 | -6.16025 | 36083 ft | 482 kts | 297° |
| 2026-05-05 13:15 | 52.78914 | -6.25839 | 36083 ft | 481 kts | 297° |
| 2026-05-05 13:15 | 52.81917 | -6.35721 | 36082 ft | 480 kts | 296° |
| 2026-05-05 13:16 | 52.84906 | -6.45599 | 36082 ft | 480 kts | 296° |
| 2026-05-05 13:16 | 52.87874 | -6.55446 | 36083 ft | 479 kts | 296° |
| 2026-05-05 13:17 | 52.90836 | -6.65317 | 36082 ft | 478 kts | 296° |
| 2026-05-05 13:17 | 52.93797 | -6.75225 | 36082 ft | 478 kts | 296° |
| 2026-05-05 13:18 | 52.96740 | -6.85117 | 36082 ft | 478 kts | 296° |
| 2026-05-05 13:18 | 52.99657 | -6.94956 | 36082 ft | 478 kts | 296° |
| 2026-05-05 13:19 | 53.02580 | -7.04862 | 36078 ft | 478 kts | 296° |
| 2026-05-05 13:19 | 53.05493 | -7.14773 | 36077 ft | 477 kts | 295° |
| 2026-05-05 13:20 | 53.08398 | -7.24697 | 36083 ft | 477 kts | 295° |
| 2026-05-05 13:20 | 53.11296 | -7.34629 | 36082 ft | 477 kts | 295° |
| 2026-05-05 13:21 | 53.14184 | -7.44583 | 36082 ft | 477 kts | 295° |
| 2026-05-05 13:21 | 53.17060 | -7.54534 | 36081 ft | 476 kts | 295° |
| 2026-05-05 13:22 | 53.19904 | -7.64417 | 36086 ft | 476 kts | 295° |
| 2026-05-05 13:22 | 53.22760 | -7.74385 | 36092 ft | 476 kts | 295° |
| 2026-05-05 13:23 | 53.25610 | -7.84372 | 36091 ft | 476 kts | 295° |
| 2026-05-05 13:23 | 53.28445 | -7.94350 | 36092 ft | 475 kts | 295° |
| 2026-05-05 13:24 | 53.31256 | -8.04281 | 36090 ft | 475 kts | 295° |
| 2026-05-05 13:24 | 53.34067 | -8.14258 | 36091 ft | 474 kts | 295° |
| 2026-05-05 13:25 | 53.36871 | -8.24252 | 36092 ft | 474 kts | 295° |
| 2026-05-05 13:25 | 53.39662 | -8.34243 | 36101 ft | 474 kts | 295° |
| 2026-05-05 13:26 | 53.42446 | -8.44253 | 36100 ft | 474 kts | 294° |
| 2026-05-05 13:26 | 53.45218 | -8.54264 | 36100 ft | 474 kts | 294° |
| 2026-05-05 13:27 | 53.47985 | -8.64298 | 36102 ft | 473 kts | 294° |
| 2026-05-05 13:27 | 53.50745 | -8.74342 | 36113 ft | 473 kts | 294° |
| 2026-05-05 13:28 | 53.53497 | -8.84412 | 36107 ft | 474 kts | 294° |
| 2026-05-05 13:28 | 53.56232 | -8.94461 | 36100 ft | 473 kts | 294° |
| 2026-05-05 13:29 | 53.58957 | -9.04523 | 36100 ft | 472 kts | 294° |
| 2026-05-05 13:29 | 53.61673 | -9.14589 | 36101 ft | 472 kts | 294° |
| 2026-05-05 13:30 | 53.64384 | -9.24680 | 36100 ft | 473 kts | 294° |
| 2026-05-05 13:30 | 53.67061 | -9.34690 | 36100 ft | 472 kts | 294° |
| 2026-05-05 13:31 | 53.69753 | -9.44797 | 36100 ft | 472 kts | 294° |
| 2026-05-05 13:31 | 53.72437 | -9.54925 | 36102 ft | 472 kts | 294° |
| 2026-05-05 13:32 | 53.75106 | -9.65036 | 36101 ft | 471 kts | 294° |
| 2026-05-05 13:32 | 53.77759 | -9.75134 | 36099 ft | 471 kts | 294° |
| 2026-05-05 13:33 | 53.80403 | -9.85238 | 36101 ft | 471 kts | 294° |
| 2026-05-05 13:33 | 53.83039 | -9.95379 | 36100 ft | 471 kts | 293° |
| 2026-05-05 13:34 | 53.85657 | -10.05482 | 36101 ft | 471 kts | 293° |
| 2026-05-05 13:34 | 53.88281 | -10.15646 | 36100 ft | 471 kts | 293° |
| 2026-05-05 13:35 | 53.90899 | -10.25826 | 36104 ft | 471 kts | 293° |
| 2026-05-05 13:35 | 53.93506 | -10.36022 | 36112 ft | 471 kts | 293° |
| 2026-05-05 13:36 | 53.95685 | -10.44579 | 36110 ft | 471 kts | 293° |
| 2026-05-05 13:36 | 53.98257 | -10.54725 | 36117 ft | 471 kts | 293° |
| 2026-05-05 13:37 | 54.00837 | -10.64948 | 36119 ft | 471 kts | 292° |
| 2026-05-05 13:37 | 54.03409 | -10.75176 | 36117 ft | 469 kts | 292° |
| 2026-05-05 13:38 | 54.05963 | -10.85384 | 36119 ft | 469 kts | 292° |
| 2026-05-05 13:38 | 54.08507 | -10.95606 | 36118 ft | 468 kts | 292° |
| 2026-05-05 13:39 | 54.11040 | -11.05824 | 36117 ft | 468 kts | 292° |
| 2026-05-05 13:39 | 54.13561 | -11.16048 | 36123 ft | 468 kts | 292° |
| 2026-05-05 13:40 | 54.16070 | -11.26270 | 36117 ft | 467 kts | 292° |
| 2026-05-05 13:40 | 54.18570 | -11.36506 | 36123 ft | 467 kts | 292° |
| 2026-05-05 13:41 | 54.21056 | -11.46732 | 36117 ft | 466 kts | 292° |
| 2026-05-05 13:41 | 54.23536 | -11.56980 | 36123 ft | 466 kts | 292° |
| 2026-05-05 13:42 | 54.26009 | -11.67241 | 36120 ft | 466 kts | 292° |
| 2026-05-05 13:42 | 54.28472 | -11.77511 | 36119 ft | 467 kts | 292° |
| 2026-05-05 13:43 | 54.30911 | -11.87730 | 36118 ft | 466 kts | 292° |
| 2026-05-05 13:43 | 54.33353 | -11.98015 | 36117 ft | 466 kts | 291° |
| 2026-05-05 13:44 | 54.35789 | -12.08323 | 36118 ft | 466 kts | 291° |
| 2026-05-05 13:44 | 54.38220 | -12.18648 | 36123 ft | 466 kts | 291° |
| 2026-05-05 13:45 | 54.40637 | -12.28972 | 36122 ft | 466 kts | 291° |
| 2026-05-05 13:45 | 54.43044 | -12.39298 | 36124 ft | 466 kts | 291° |
| 2026-05-05 13:46 | 54.45442 | -12.49643 | 36120 ft | 465 kts | 291° |
| 2026-05-05 13:46 | 54.47828 | -12.59986 | 36117 ft | 466 kts | 291° |
| 2026-05-05 13:47 | 54.50209 | -12.70359 | 36117 ft | 466 kts | 291° |
| 2026-05-05 13:47 | 54.52578 | -12.80727 | 36119 ft | 466 kts | 291° |
| 2026-05-05 13:48 | 54.54940 | -12.91106 | 36120 ft | 466 kts | 291° |
| 2026-05-05 13:48 | 54.57290 | -13.01484 | 36128 ft | 466 kts | 291° |
| 2026-05-05 13:49 | 54.59635 | -13.11898 | 36122 ft | 466 kts | 290° |
| 2026-05-05 13:49 | 54.61972 | -13.22329 | 36127 ft | 466 kts | 290° |
| 2026-05-05 13:50 | 54.64296 | -13.32757 | 36127 ft | 466 kts | 290° |
| 2026-05-05 13:50 | 54.66613 | -13.43203 | 36131 ft | 466 kts | 290° |
| 2026-05-05 13:51 | 54.68920 | -13.53657 | 36132 ft | 466 kts | 290° |
| 2026-05-05 13:51 | 54.71205 | -13.64068 | 36134 ft | 466 kts | 290° |
| 2026-05-05 13:52 | 54.73499 | -13.74564 | 36128 ft | 466 kts | 290° |
| 2026-05-05 13:52 | 54.75781 | -13.85057 | 36126 ft | 466 kts | 290° |
| 2026-05-05 13:53 | 54.78054 | -13.95574 | 36125 ft | 465 kts | 290° |
| 2026-05-05 13:53 | 54.80319 | -14.06097 | 36127 ft | 466 kts | 290° |
| 2026-05-05 13:54 | 54.82570 | -14.16607 | 36129 ft | 465 kts | 290° |
| 2026-05-05 13:54 | 54.84812 | -14.27135 | 36129 ft | 465 kts | 289° |
| 2026-05-05 13:55 | 54.87044 | -14.37678 | 36125 ft | 465 kts | 289° |
| 2026-05-05 13:55 | 54.89269 | -14.48242 | 36129 ft | 466 kts | 289° |
| 2026-05-05 13:56 | 54.91477 | -14.58773 | 36132 ft | 466 kts | 289° |
| 2026-05-05 13:56 | 54.93687 | -14.69369 | 36134 ft | 466 kts | 289° |
| 2026-05-05 13:57 | 54.95889 | -14.79971 | 36126 ft | 466 kts | 289° |
| 2026-05-05 13:57 | 54.98080 | -14.90585 | 36124 ft | 466 kts | 289° |
| 2026-05-05 13:58 | 55.00267 | -15.01229 | 36126 ft | 466 kts | 289° |
| 2026-05-05 13:58 | 55.02581 | -15.11796 | 36130 ft | 466 kts | 291° |
| 2026-05-05 13:59 | 55.06168 | -15.27507 | 36128 ft | 466 kts | 291° |
| 2026-05-05 14:00 | 55.09311 | -15.41559 | 36131 ft | 466 kts | 290° |
| 2026-05-05 14:00 | 55.12038 | -15.53912 | 36141 ft | 467 kts | 290° |
| 2026-05-05 14:01 | 55.14362 | -15.64503 | 36144 ft | 466 kts | 290° |
| 2026-05-05 14:01 | 55.16675 | -15.75098 | 36134 ft | 466 kts | 290° |
| 2026-05-05 14:02 | 55.18975 | -15.85675 | 36138 ft | 465 kts | 290° |
| 2026-05-05 14:02 | 55.21257 | -15.96233 | 36143 ft | 466 kts | 290° |
| 2026-05-05 14:03 | 55.23541 | -16.06849 | 36131 ft | 467 kts | 290° |
| 2026-05-05 14:03 | 55.25823 | -16.17508 | 36145 ft | 467 kts | 290° |
| 2026-05-05 14:04 | 55.28098 | -16.28191 | 36144 ft | 466 kts | 289° |
| 2026-05-05 14:04 | 55.30357 | -16.38869 | 36133 ft | 467 kts | 289° |
| 2026-05-05 14:05 | 55.32611 | -16.49568 | 36133 ft | 467 kts | 289° |
| 2026-05-05 14:05 | 55.34854 | -16.60270 | 36134 ft | 467 kts | 289° |
| 2026-05-05 14:06 | 55.37088 | -16.70990 | 36125 ft | 467 kts | 289° |
| 2026-05-05 14:06 | 55.39299 | -16.81669 | 36130 ft | 467 kts | 289° |
| 2026-05-05 14:07 | 55.41516 | -16.92409 | 36150 ft | 467 kts | 289° |
| 2026-05-05 14:07 | 55.43727 | -17.03177 | 36156 ft | 467 kts | 289° |
| 2026-05-05 14:08 | 55.45926 | -17.13953 | 36155 ft | 468 kts | 289° |
| 2026-05-05 14:08 | 55.48119 | -17.24759 | 36156 ft | 468 kts | 289° |
| 2026-05-05 14:09 | 55.50305 | -17.35590 | 36154 ft | 468 kts | 289° |
| 2026-05-05 14:09 | 55.52460 | -17.46332 | 36163 ft | 468 kts | 289° |
| 2026-05-05 14:10 | 55.54621 | -17.57162 | 36174 ft | 468 kts | 289° |
| 2026-05-05 14:10 | 55.56777 | -17.68022 | 36172 ft | 469 kts | 289° |
| 2026-05-05 14:11 | 55.58926 | -17.78912 | 36177 ft | 469 kts | 289° |
| 2026-05-05 14:11 | 55.61064 | -17.89807 | 36177 ft | 469 kts | 289° |
| 2026-05-05 14:12 | 55.63196 | -18.00723 | 36173 ft | 469 kts | 289° |
| 2026-05-05 14:12 | 55.65306 | -18.11604 | 36181 ft | 469 kts | 289° |
| 2026-05-05 14:13 | 55.67419 | -18.22547 | 36194 ft | 470 kts | 289° |
| 2026-05-05 14:13 | 55.69526 | -18.33521 | 36195 ft | 470 kts | 288° |
| 2026-05-05 14:14 | 55.71623 | -18.44510 | 36190 ft | 469 kts | 288° |
| 2026-05-05 14:14 | 55.73705 | -18.55486 | 36194 ft | 469 kts | 288° |
| 2026-05-05 14:15 | 55.75776 | -18.66466 | 36195 ft | 469 kts | 288° |
| 2026-05-05 14:15 | 55.81440 | -18.96833 | 36195 ft | 470 kts | 288° |
| 2026-05-05 14:16 | 55.89541 | -19.41125 | 36202 ft | 471 kts | 288° |
| 2026-05-05 14:16 | 55.97490 | -19.85648 | 36202 ft | 471 kts | 288° |
| 2026-05-05 14:17 | 56.07303 | -20.29094 | 36202 ft | 471 kts | 294° |
| 2026-05-05 14:17 | 56.17835 | -20.71696 | 36212 ft | 470 kts | 294° |
| 2026-05-05 14:18 | 56.28266 | -21.14772 | 36211 ft | 469 kts | 294° |
| 2026-05-05 14:18 | 56.38533 | -21.58027 | 36221 ft | 469 kts | 294° |
| 2026-05-05 14:19 | 56.47020 | -21.94446 | 36220 ft | 470 kts | 294° |
| 2026-05-05 14:19 | 56.56952 | -22.37887 | 36220 ft | 469 kts | 293° |
| 2026-05-05 14:20 | 56.66768 | -22.81709 | 36233 ft | 469 kts | 293° |
| 2026-05-05 14:20 | 56.76437 | -23.25794 | 36253 ft | 468 kts | 294° |
| 2026-05-05 14:21 | 56.85938 | -23.70050 | 36286 ft | 468 kts | 293° |
| 2026-05-05 14:21 | 56.95277 | -24.14501 | 36312 ft | 468 kts | 293° |
| 2026-05-05 14:22 | 57.04460 | -24.59200 | 36317 ft | 467 kts | 293° |
| 2026-05-05 14:22 | 57.13464 | -25.04013 | 36320 ft | 466 kts | 293° |
| 2026-05-05 14:23 | 57.22227 | -25.48631 | 36329 ft | 465 kts | 293° |
| 2026-05-05 14:23 | 57.30863 | -25.93626 | 36334 ft | 464 kts | 293° |
| 2026-05-05 14:24 | 57.39323 | -26.38762 | 36332 ft | 463 kts | 293° |
| 2026-05-05 14:24 | 57.47615 | -26.84046 | 36347 ft | 463 kts | 293° |
| 2026-05-05 14:25 | 57.55756 | -27.29617 | 36346 ft | 463 kts | 292° |
| 2026-05-05 14:25 | 57.63702 | -27.75226 | 36363 ft | 462 kts | 292° |
| 2026-05-05 14:26 | 57.71454 | -28.20843 | 36400 ft | 460 kts | 292° |
| 2026-05-05 14:26 | 57.79059 | -28.66764 | 36414 ft | 461 kts | 291° |
| 2026-05-05 14:27 | 57.86482 | -29.12791 | 36412 ft | 461 kts | 291° |
| 2026-05-05 14:27 | 57.93734 | -29.58982 | 36414 ft | 459 kts | 290° |
| 2026-05-05 14:28 | 58.00790 | -30.05222 | 36408 ft | 458 kts | 289° |
| 2026-05-05 14:28 | 58.04008 | -30.28180 | 36588 ft | 457 kts | 288° |
| 2026-05-05 14:28 | 58.07236 | -30.51469 | 37659 ft | 450 kts | 288° |
| 2026-05-05 14:29 | 58.10314 | -30.73911 | 38422 ft | 447 kts | 288° |
| 2026-05-05 14:29 | 58.13394 | -30.96697 | 38427 ft | 446 kts | 287° |
| 2026-05-05 14:29 | 58.19415 | -31.42269 | 38398 ft | 446 kts | 287° |
| 2026-05-05 14:30 | 58.25290 | -31.88136 | 38385 ft | 448 kts | 286° |
| 2026-05-05 14:30 | 58.31014 | -32.34277 | 38394 ft | 449 kts | 286° |
| 2026-05-05 14:31 | 58.36580 | -32.80617 | 38395 ft | 448 kts | 285° |
| 2026-05-05 14:31 | 58.41988 | -33.27193 | 38395 ft | 450 kts | 284° |
| 2026-05-05 14:32 | 58.47235 | -33.74004 | 38397 ft | 452 kts | 284° |
| 2026-05-05 14:32 | 58.52335 | -34.21139 | 38399 ft | 453 kts | 283° |
| 2026-05-05 14:33 | 58.57277 | -34.68611 | 38452 ft | 454 kts | 283° |
| 2026-05-05 14:33 | 58.62058 | -35.16325 | 38452 ft | 455 kts | 282° |
| 2026-05-05 14:34 | 58.66648 | -35.64019 | 38446 ft | 457 kts | 282° |
| 2026-05-05 14:34 | 58.71100 | -36.12278 | 38451 ft | 459 kts | 281° |
| 2026-05-05 14:35 | 58.75392 | -36.60908 | 38450 ft | 462 kts | 281° |
| 2026-05-05 14:35 | 58.79516 | -37.09821 | 38446 ft | 463 kts | 280° |
| 2026-05-05 14:36 | 58.83475 | -37.59128 | 38396 ft | 466 kts | 280° |
| 2026-05-05 14:36 | 58.87263 | -38.08766 | 38315 ft | 467 kts | 279° |
| 2026-05-05 14:37 | 58.90872 | -38.58690 | 38232 ft | 470 kts | 279° |
| 2026-05-05 14:37 | 58.94304 | -39.08942 | 38202 ft | 471 kts | 278° |
| 2026-05-05 14:38 | 58.97554 | -39.59514 | 38192 ft | 473 kts | 278° |
| 2026-05-05 14:38 | 59.00503 | -40.10018 | 38174 ft | 474 kts | 275° |
| 2026-05-05 14:39 | 59.02229 | -40.61340 | 38167 ft | 478 kts | 274° |
| 2026-05-05 14:39 | 59.03875 | -41.12983 | 38132 ft | 480 kts | 274° |
| 2026-05-05 14:40 | 59.05320 | -41.64800 | 38118 ft | 482 kts | 273° |
| 2026-05-05 14:40 | 59.06559 | -42.16837 | 38109 ft | 483 kts | 272° |
| 2026-05-05 14:41 | 59.07597 | -42.69300 | 38102 ft | 487 kts | 271° |
| 2026-05-05 14:41 | 59.08429 | -43.22170 | 38103 ft | 489 kts | 270° |
| 2026-05-05 14:42 | 59.09046 | -43.75233 | 38094 ft | 492 kts | 270° |
| 2026-05-05 14:42 | 59.09448 | -44.28518 | 38091 ft | 493 kts | 269° |
| 2026-05-05 14:43 | 59.09632 | -44.82194 | 38081 ft | 497 kts | 268° |
| 2026-05-05 14:43 | 59.09596 | -45.35756 | 38082 ft | 499 kts | 268° |
| 2026-05-05 14:44 | 59.09334 | -45.89873 | 38045 ft | 500 kts | 267° |
| 2026-05-05 14:44 | 59.08845 | -46.44086 | 38040 ft | 504 kts | 266° |
| 2026-05-05 14:45 | 59.08124 | -46.98710 | 38036 ft | 506 kts | 265° |
| 2026-05-05 14:45 | 59.07171 | -47.53557 | 38034 ft | 508 kts | 264° |
| 2026-05-05 14:46 | 59.05981 | -48.08496 | 38025 ft | 509 kts | 264° |
| 2026-05-05 14:46 | 59.04553 | -48.63648 | 38017 ft | 513 kts | 263° |
| 2026-05-05 14:47 | 59.02879 | -49.19126 | 38008 ft | 514 kts | 262° |
| 2026-05-05 14:47 | 59.00969 | -49.74530 | 37981 ft | 515 kts | 262° |
| 2026-05-05 14:48 | 58.97235 | -50.29016 | 37957 ft | 514 kts | 255° |
| 2026-05-05 14:48 | 58.91796 | -50.83428 | 37949 ft | 515 kts | 254° |
| 2026-05-05 14:49 | 58.86131 | -51.37835 | 37932 ft | 516 kts | 253° |
| 2026-05-05 14:49 | 58.80213 | -51.92300 | 37913 ft | 518 kts | 253° |
| 2026-05-05 14:50 | 58.74058 | -52.46628 | 37829 ft | 521 kts | 253° |
| 2026-05-05 14:50 | 58.71599 | -52.67732 | 37822 ft | 520 kts | 252° |
| 2026-05-05 14:51 | 58.69992 | -52.81328 | 37813 ft | 522 kts | 252° |
| 2026-05-05 14:51 | 58.68383 | -52.94842 | 37811 ft | 521 kts | 252° |
| 2026-05-05 14:52 | 58.66747 | -53.08445 | 37804 ft | 522 kts | 252° |
| 2026-05-05 14:52 | 58.65099 | -53.22040 | 37804 ft | 522 kts | 252° |
| 2026-05-05 14:53 | 58.63434 | -53.35633 | 37801 ft | 523 kts | 252° |
| 2026-05-05 14:53 | 58.61751 | -53.49208 | 37795 ft | 523 kts | 252° |
| 2026-05-05 14:54 | 58.60068 | -53.62685 | 37795 ft | 522 kts | 252° |
| 2026-05-05 14:54 | 58.58361 | -53.76226 | 37791 ft | 523 kts | 252° |
| 2026-05-05 14:55 | 58.56637 | -53.89768 | 37785 ft | 523 kts | 252° |
| 2026-05-05 14:55 | 58.54895 | -54.03316 | 37785 ft | 523 kts | 251° |
| 2026-05-05 14:56 | 58.53139 | -54.16828 | 37776 ft | 524 kts | 251° |
| 2026-05-05 14:56 | 58.49643 | -54.43476 | 37776 ft | 524 kts | 251° |
| 2026-05-05 14:57 | 58.42401 | -54.97101 | 37751 ft | 525 kts | 251° |
| 2026-05-05 14:57 | 58.34882 | -55.50936 | 37735 ft | 526 kts | 250° |
| 2026-05-05 14:58 | 58.27133 | -56.04554 | 37679 ft | 525 kts | 250° |
| 2026-05-05 14:58 | 58.19176 | -56.57842 | 37596 ft | 525 kts | 250° |
| 2026-05-05 14:59 | 58.10946 | -57.11209 | 37500 ft | 528 kts | 249° |
| 2026-05-05 14:59 | 58.02482 | -57.64405 | 37446 ft | 529 kts | 249° |
| 2026-05-05 15:00 | 57.95336 | -58.08499 | 37445 ft | 530 kts | 251° |
| 2026-05-05 15:00 | 57.86230 | -58.71002 | 37446 ft | 528 kts | 251° |
| 2026-05-05 15:01 | 57.78155 | -59.23835 | 37444 ft | 526 kts | 251° |
| 2026-05-05 15:01 | 57.69873 | -59.76389 | 37405 ft | 527 kts | 250° |
| 2026-05-05 15:02 | 57.61407 | -60.28477 | 37403 ft | 527 kts | 250° |
| 2026-05-05 15:02 | 57.52687 | -60.80588 | 37395 ft | 524 kts | 249° |
| 2026-05-05 15:03 | 57.49649 | -60.98382 | 37392 ft | 523 kts | 250° |
| 2026-05-05 15:03 | 57.47438 | -61.11227 | 37391 ft | 521 kts | 249° |
| 2026-05-05 15:04 | 57.45215 | -61.24048 | 37391 ft | 521 kts | 249° |
| 2026-05-05 15:04 | 57.42981 | -61.36841 | 37393 ft | 521 kts | 249° |
| 2026-05-05 15:05 | 57.39620 | -61.55925 | 37388 ft | 515 kts | 250° |
| 2026-05-05 15:06 | 57.37764 | -61.66380 | 37395 ft | 514 kts | 249° |
| 2026-05-05 15:06 | 57.35516 | -61.78963 | 37394 ft | 513 kts | 249° |
| 2026-05-05 15:07 | 57.33262 | -61.91494 | 37391 ft | 514 kts | 249° |
| 2026-05-05 15:07 | 57.30988 | -62.04044 | 37395 ft | 514 kts | 249° |
| 2026-05-05 15:08 | 57.28725 | -62.16461 | 37391 ft | 513 kts | 249° |
| 2026-05-05 15:08 | 57.26435 | -62.28954 | 37392 ft | 512 kts | 249° |
| 2026-05-05 15:09 | 57.24137 | -62.41399 | 37392 ft | 511 kts | 249° |
| 2026-05-05 15:09 | 57.21829 | -62.53801 | 37393 ft | 511 kts | 249° |
| 2026-05-05 15:10 | 57.19760 | -62.66347 | 37393 ft | 511 kts | 254° |
| 2026-05-05 15:10 | 57.15177 | -63.01153 | 37400 ft | 510 kts | 255° |
| 2026-05-05 15:11 | 57.11618 | -63.27851 | 37404 ft | 510 kts | 255° |
| 2026-05-05 15:11 | 57.09906 | -63.40499 | 37403 ft | 509 kts | 255° |
| 2026-05-05 15:12 | 57.08180 | -63.53133 | 37410 ft | 508 kts | 255° |
| 2026-05-05 15:12 | 57.06446 | -63.65731 | 37411 ft | 508 kts | 255° |
| 2026-05-05 15:13 | 57.04713 | -63.78220 | 37410 ft | 507 kts | 254° |
| 2026-05-05 15:13 | 57.02968 | -63.90688 | 37410 ft | 508 kts | 254° |
| 2026-05-05 15:14 | 57.01186 | -64.03312 | 37411 ft | 507 kts | 254° |
| 2026-05-05 15:14 | 56.99409 | -64.15816 | 37420 ft | 506 kts | 254° |
| 2026-05-05 15:15 | 56.97622 | -64.28290 | 37421 ft | 506 kts | 254° |
| 2026-05-05 15:15 | 56.95824 | -64.40750 | 37420 ft | 506 kts | 254° |
| 2026-05-05 15:16 | 56.94010 | -64.53206 | 37420 ft | 506 kts | 254° |
| 2026-05-05 15:16 | 56.92197 | -64.65567 | 37420 ft | 505 kts | 254° |
| 2026-05-05 15:17 | 56.90361 | -64.77988 | 37431 ft | 505 kts | 254° |
| 2026-05-05 15:17 | 56.88511 | -64.90398 | 37431 ft | 505 kts | 254° |
| 2026-05-05 15:18 | 56.86648 | -65.02774 | 37432 ft | 505 kts | 253° |
| 2026-05-05 15:18 | 56.84779 | -65.15148 | 37430 ft | 505 kts | 253° |
| 2026-05-05 15:19 | 56.82894 | -65.27528 | 37468 ft | 505 kts | 253° |
| 2026-05-05 15:19 | 56.80998 | -65.39885 | 37455 ft | 505 kts | 253° |
| 2026-05-05 15:20 | 56.79092 | -65.52214 | 37455 ft | 504 kts | 253° |
| 2026-05-05 15:20 | 56.77187 | -65.64446 | 37461 ft | 504 kts | 253° |
| 2026-05-05 15:21 | 56.75260 | -65.76721 | 37461 ft | 504 kts | 253° |
| 2026-05-05 15:21 | 56.73318 | -65.88996 | 37463 ft | 503 kts | 253° |
| 2026-05-05 15:22 | 56.71367 | -66.01237 | 37462 ft | 503 kts | 253° |
| 2026-05-05 15:22 | 56.69407 | -66.13461 | 37456 ft | 503 kts | 253° |
| 2026-05-05 15:23 | 56.67436 | -66.25678 | 37456 ft | 502 kts | 253° |
| 2026-05-05 15:23 | 56.65463 | -66.37798 | 37452 ft | 502 kts | 253° |
| 2026-05-05 15:24 | 56.63467 | -66.49986 | 37447 ft | 503 kts | 252° |
| 2026-05-05 15:24 | 56.61459 | -66.62151 | 37441 ft | 503 kts | 252° |
| 2026-05-05 15:25 | 56.59437 | -66.74319 | 37438 ft | 503 kts | 252° |
| 2026-05-05 15:25 | 56.57403 | -66.86486 | 37438 ft | 503 kts | 252° |
| 2026-05-05 15:26 | 56.55372 | -66.98544 | 37434 ft | 503 kts | 252° |
| 2026-05-05 15:26 | 56.53313 | -67.10686 | 37432 ft | 503 kts | 252° |
| 2026-05-05 15:27 | 56.51246 | -67.22793 | 37429 ft | 503 kts | 252° |
| 2026-05-05 15:27 | 56.49169 | -67.34880 | 37429 ft | 503 kts | 252° |
| 2026-05-05 15:28 | 56.47081 | -67.46935 | 37429 ft | 502 kts | 252° |
| 2026-05-05 15:28 | 56.44980 | -67.58992 | 37429 ft | 502 kts | 252° |
| 2026-05-05 15:29 | 56.42876 | -67.70995 | 37432 ft | 501 kts | 252° |
| 2026-05-05 15:29 | 56.40763 | -67.82968 | 37432 ft | 499 kts | 251° |
| 2026-05-05 15:30 | 56.38655 | -67.94820 | 37429 ft | 499 kts | 251° |
| 2026-05-05 15:30 | 56.36524 | -68.06731 | 37430 ft | 499 kts | 251° |
| 2026-05-05 15:31 | 56.34382 | -68.18639 | 37430 ft | 499 kts | 251° |
| 2026-05-05 15:31 | 56.32230 | -68.30529 | 37431 ft | 499 kts | 251° |
| 2026-05-05 15:32 | 56.30064 | -68.42403 | 37431 ft | 499 kts | 251° |
| 2026-05-05 15:32 | 56.27885 | -68.54269 | 37465 ft | 500 kts | 251° |
| 2026-05-05 15:33 | 56.25693 | -68.66132 | 37462 ft | 500 kts | 251° |
| 2026-05-05 15:33 | 56.23489 | -68.77995 | 37461 ft | 500 kts | 251° |
| 2026-05-05 15:34 | 56.21269 | -68.89862 | 37459 ft | 501 kts | 250° |
| 2026-05-05 15:34 | 56.19042 | -69.01705 | 37454 ft | 500 kts | 250° |
| 2026-05-05 15:35 | 56.16816 | -69.13468 | 37458 ft | 500 kts | 250° |
| 2026-05-05 15:35 | 56.14564 | -69.25283 | 37460 ft | 500 kts | 250° |
| 2026-05-05 15:36 | 56.12308 | -69.37051 | 37462 ft | 499 kts | 250° |
| 2026-05-05 15:36 | 56.10037 | -69.48823 | 37443 ft | 498 kts | 250° |
| 2026-05-05 15:37 | 56.07763 | -69.60538 | 37451 ft | 497 kts | 250° |
| 2026-05-05 15:37 | 56.05483 | -69.72220 | 37442 ft | 497 kts | 250° |
| 2026-05-05 15:38 | 56.03197 | -69.83862 | 37440 ft | 496 kts | 249° |
| 2026-05-05 15:38 | 56.00916 | -69.95402 | 37436 ft | 496 kts | 249° |
| 2026-05-05 15:39 | 55.98699 | -70.07159 | 37441 ft | 496 kts | 253° |
| 2026-05-05 15:39 | 55.96956 | -70.19022 | 37440 ft | 496 kts | 255° |
| 2026-05-05 15:40 | 55.95254 | -70.30959 | 37438 ft | 496 kts | 254° |
| 2026-05-05 15:40 | 55.93474 | -70.42837 | 37434 ft | 495 kts | 253° |
| 2026-05-05 15:41 | 55.91638 | -70.54689 | 37430 ft | 495 kts | 253° |
| 2026-05-05 15:41 | 55.89787 | -70.66493 | 37429 ft | 494 kts | 253° |
| 2026-05-05 15:42 | 55.87929 | -70.78282 | 37431 ft | 494 kts | 253° |
| 2026-05-05 15:42 | 55.86061 | -70.90058 | 37420 ft | 493 kts | 253° |
| 2026-05-05 15:43 | 55.84186 | -71.01800 | 37420 ft | 493 kts | 252° |
| 2026-05-05 15:43 | 55.82300 | -71.13533 | 37420 ft | 493 kts | 252° |
| 2026-05-05 15:44 | 55.80402 | -71.25276 | 37422 ft | 493 kts | 252° |
| 2026-05-05 15:44 | 55.78508 | -71.36901 | 37421 ft | 494 kts | 252° |
| 2026-05-05 15:45 | 55.76584 | -71.48632 | 37420 ft | 494 kts | 252° |
| 2026-05-05 15:45 | 55.74647 | -71.60362 | 37420 ft | 495 kts | 252° |
| 2026-05-05 15:46 | 55.72699 | -71.72070 | 37420 ft | 495 kts | 252° |
| 2026-05-05 15:46 | 55.70734 | -71.83792 | 37421 ft | 496 kts | 252° |
| 2026-05-05 15:47 | 55.68757 | -71.95524 | 37410 ft | 496 kts | 252° |
| 2026-05-05 15:47 | 55.66772 | -72.07238 | 37410 ft | 496 kts | 251° |
| 2026-05-05 15:48 | 55.64775 | -72.18933 | 37431 ft | 496 kts | 251° |
| 2026-05-05 15:48 | 55.62765 | -72.30626 | 37431 ft | 496 kts | 251° |
| 2026-05-05 15:49 | 55.60760 | -72.42222 | 37428 ft | 496 kts | 251° |
| 2026-05-05 15:49 | 55.58728 | -72.53871 | 37423 ft | 495 kts | 251° |
| 2026-05-05 15:50 | 55.56689 | -72.65512 | 37420 ft | 495 kts | 251° |
| 2026-05-05 15:50 | 55.54643 | -72.77115 | 37420 ft | 495 kts | 251° |
| 2026-05-05 15:51 | 55.52591 | -72.88693 | 37421 ft | 494 kts | 251° |
| 2026-05-05 15:51 | 55.50524 | -73.00264 | 37421 ft | 494 kts | 250° |
| 2026-05-05 15:52 | 55.48800 | -73.09864 | 37420 ft | 494 kts | 250° |
| 2026-05-05 15:52 | 55.46712 | -73.21409 | 37421 ft | 494 kts | 250° |
| 2026-05-05 15:53 | 55.44267 | -73.34829 | 37421 ft | 495 kts | 250° |
| 2026-05-05 15:53 | 55.42496 | -73.44499 | 37420 ft | 495 kts | 250° |
| 2026-05-05 15:54 | 55.40374 | -73.56028 | 37421 ft | 495 kts | 250° |
| 2026-05-05 15:54 | 55.38253 | -73.67475 | 37413 ft | 495 kts | 250° |
| 2026-05-05 15:55 | 55.36107 | -73.78992 | 37402 ft | 496 kts | 250° |
| 2026-05-05 15:55 | 55.33947 | -73.90508 | 37400 ft | 496 kts | 249° |
| 2026-05-05 15:56 | 55.31775 | -74.02017 | 37399 ft | 496 kts | 249° |
| 2026-05-05 15:56 | 55.29595 | -74.13500 | 37398 ft | 496 kts | 249° |
| 2026-05-05 15:57 | 55.27401 | -74.24990 | 37403 ft | 496 kts | 249° |
| 2026-05-05 15:57 | 55.25199 | -74.36458 | 37402 ft | 496 kts | 249° |
| 2026-05-05 15:58 | 55.22987 | -74.47903 | 37405 ft | 496 kts | 249° |
| 2026-05-05 15:58 | 55.20776 | -74.59271 | 37406 ft | 495 kts | 249° |
| 2026-05-05 15:59 | 55.18544 | -74.70681 | 37402 ft | 495 kts | 249° |
| 2026-05-05 15:59 | 55.16303 | -74.82076 | 37401 ft | 495 kts | 249° |
| 2026-05-05 16:00 | 55.14050 | -74.93455 | 37404 ft | 495 kts | 249° |
| 2026-05-05 16:00 | 55.11788 | -75.04829 | 37400 ft | 495 kts | 249° |
| 2026-05-05 16:01 | 55.09513 | -75.16197 | 37402 ft | 495 kts | 248° |
| 2026-05-05 16:01 | 55.07230 | -75.27531 | 37403 ft | 495 kts | 248° |
| 2026-05-05 16:02 | 55.04935 | -75.38859 | 37401 ft | 495 kts | 248° |
| 2026-05-05 16:02 | 55.02643 | -75.50110 | 37402 ft | 495 kts | 248° |
| 2026-05-05 16:03 | 55.00328 | -75.61410 | 37399 ft | 495 kts | 248° |
| 2026-05-05 16:03 | 54.98000 | -75.72715 | 37402 ft | 495 kts | 248° |
| 2026-05-05 16:04 | 54.95664 | -75.83990 | 37397 ft | 495 kts | 248° |
| 2026-05-05 16:04 | 54.93319 | -75.95247 | 37399 ft | 495 kts | 248° |
| 2026-05-05 16:05 | 54.90966 | -76.06480 | 37401 ft | 495 kts | 248° |
| 2026-05-05 16:05 | 54.88600 | -76.17715 | 37394 ft | 495 kts | 248° |
| 2026-05-05 16:06 | 54.86223 | -76.28934 | 37356 ft | 495 kts | 248° |
| 2026-05-05 16:06 | 54.83837 | -76.40136 | 37361 ft | 495 kts | 248° |
| 2026-05-05 16:07 | 54.81439 | -76.51321 | 37373 ft | 495 kts | 248° |
| 2026-05-05 16:07 | 54.79048 | -76.62430 | 37362 ft | 495 kts | 247° |
| 2026-05-05 16:08 | 54.76627 | -76.73613 | 37365 ft | 494 kts | 247° |
| 2026-05-05 16:08 | 54.74201 | -76.84758 | 37365 ft | 495 kts | 247° |
| 2026-05-05 16:09 | 54.71763 | -76.95891 | 37356 ft | 495 kts | 247° |
| 2026-05-05 16:09 | 54.69326 | -77.06954 | 37358 ft | 495 kts | 247° |
| 2026-05-05 16:10 | 54.66870 | -77.18053 | 37360 ft | 494 kts | 247° |
| 2026-05-05 16:10 | 54.64405 | -77.29147 | 37372 ft | 494 kts | 247° |
| 2026-05-05 16:11 | 54.61928 | -77.40225 | 37372 ft | 494 kts | 247° |
| 2026-05-05 16:12 | 54.56954 | -77.62292 | 37370 ft | 493 kts | 247° |
| 2026-05-05 16:12 | 54.54458 | -77.73277 | 37773 ft | 490 kts | 247° |
| 2026-05-05 16:13 | 54.50727 | -77.89606 | 38447 ft | 488 kts | 247° |
| 2026-05-05 16:13 | 54.49483 | -77.95023 | 38620 ft | 488 kts | 247° |
| 2026-05-05 16:13 | 54.48245 | -78.00389 | 38781 ft | 488 kts | 247° |
| 2026-05-05 16:14 | 54.45738 | -78.11222 | 39077 ft | 488 kts | 247° |
| 2026-05-05 16:14 | 54.43224 | -78.22041 | 39320 ft | 489 kts | 246° |
| 2026-05-05 16:15 | 54.38112 | -78.43868 | 39365 ft | 494 kts | 246° |
| 2026-05-05 16:16 | 54.32937 | -78.65734 | 39364 ft | 494 kts | 246° |
| 2026-05-05 16:17 | 54.29034 | -78.82090 | 39364 ft | 495 kts | 246° |
| 2026-05-05 16:18 | 54.25118 | -78.98378 | 39364 ft | 496 kts | 246° |
| 2026-05-05 16:19 | 54.21151 | -79.14733 | 39372 ft | 496 kts | 246° |
| 2026-05-05 16:19 | 54.17161 | -79.31078 | 39364 ft | 497 kts | 246° |
| 2026-05-05 16:20 | 54.11805 | -79.52812 | 39364 ft | 497 kts | 246° |
| 2026-05-05 16:22 | 54.05059 | -79.79913 | 39364 ft | 497 kts | 246° |
| 2026-05-05 16:23 | 53.99628 | -80.01469 | 39350 ft | 497 kts | 245° |
| 2026-05-05 16:23 | 53.95163 | -80.17353 | 39373 ft | 496 kts | 242° |
| 2026-05-05 16:24 | 53.92090 | -80.27841 | 39390 ft | 496 kts | 243° |
| 2026-05-05 16:25 | 53.87529 | -80.43587 | 39383 ft | 496 kts | 243° |
| 2026-05-05 16:25 | 53.82982 | -80.59309 | 39383 ft | 496 kts | 243° |
| 2026-05-05 16:26 | 53.76900 | -80.80162 | 39373 ft | 495 kts | 242° |
| 2026-05-05 16:27 | 53.73835 | -80.90591 | 39373 ft | 496 kts | 242° |
| 2026-05-05 16:27 | 53.70758 | -81.01013 | 39374 ft | 496 kts | 242° |
| 2026-05-05 16:28 | 53.67676 | -81.11417 | 39364 ft | 496 kts | 242° |
| 2026-05-05 16:28 | 53.64579 | -81.21825 | 39364 ft | 496 kts | 242° |
| 2026-05-05 16:29 | 53.61471 | -81.32224 | 39364 ft | 497 kts | 242° |
| 2026-05-05 16:29 | 53.58354 | -81.42605 | 39363 ft | 497 kts | 242° |
| 2026-05-05 16:30 | 53.55223 | -81.52984 | 39355 ft | 497 kts | 242° |
| 2026-05-05 16:30 | 53.52082 | -81.63351 | 39354 ft | 498 kts | 242° |
| 2026-05-05 16:31 | 53.48951 | -81.73645 | 39355 ft | 498 kts | 242° |
| 2026-05-05 16:31 | 53.45786 | -81.84002 | 39355 ft | 498 kts | 242° |
| 2026-05-05 16:32 | 53.42615 | -81.94335 | 39345 ft | 498 kts | 241° |
| 2026-05-05 16:32 | 53.39438 | -82.04655 | 39345 ft | 498 kts | 241° |
| 2026-05-05 16:33 | 53.36242 | -82.14983 | 39346 ft | 498 kts | 241° |
| 2026-05-05 16:33 | 53.33041 | -82.25282 | 39345 ft | 498 kts | 241° |
| 2026-05-05 16:34 | 53.29854 | -82.35487 | 39345 ft | 498 kts | 241° |
| 2026-05-05 16:34 | 53.26641 | -82.45737 | 39343 ft | 497 kts | 241° |
| 2026-05-05 16:35 | 53.23423 | -82.55952 | 39333 ft | 497 kts | 241° |
| 2026-05-05 16:35 | 53.20189 | -82.66176 | 39333 ft | 497 kts | 241° |
| 2026-05-05 16:36 | 53.16958 | -82.76361 | 39335 ft | 497 kts | 241° |
| 2026-05-05 16:36 | 53.13718 | -82.86526 | 39337 ft | 496 kts | 241° |
| 2026-05-05 16:37 | 53.10475 | -82.96658 | 39339 ft | 496 kts | 241° |
| 2026-05-05 16:37 | 53.07218 | -83.06791 | 39345 ft | 496 kts | 240° |
| 2026-05-05 16:38 | 53.03976 | -83.16832 | 39345 ft | 496 kts | 240° |
| 2026-05-05 16:38 | 53.00701 | -83.26938 | 39345 ft | 496 kts | 240° |
| 2026-05-05 16:39 | 52.97424 | -83.37008 | 39345 ft | 496 kts | 240° |
| 2026-05-05 16:39 | 52.94692 | -83.45369 | 39345 ft | 496 kts | 240° |
| 2026-05-05 16:40 | 52.91397 | -83.55417 | 39354 ft | 496 kts | 240° |
| 2026-05-05 16:40 | 52.88097 | -83.65443 | 39363 ft | 496 kts | 240° |
| 2026-05-05 16:41 | 52.84784 | -83.75463 | 39364 ft | 496 kts | 240° |
| 2026-05-05 16:41 | 52.81465 | -83.85451 | 39373 ft | 496 kts | 240° |
| 2026-05-05 16:42 | 52.78141 | -83.95432 | 39374 ft | 495 kts | 240° |
| 2026-05-05 16:42 | 52.74813 | -84.05382 | 39381 ft | 495 kts | 240° |
| 2026-05-05 16:43 | 52.71471 | -84.15324 | 39383 ft | 496 kts | 240° |
| 2026-05-05 16:43 | 52.68122 | -84.25253 | 39392 ft | 495 kts | 240° |
| 2026-05-05 16:44 | 52.64763 | -84.35172 | 39395 ft | 496 kts | 240° |
| 2026-05-05 16:44 | 52.61389 | -84.45091 | 39399 ft | 496 kts | 240° |
| 2026-05-05 16:45 | 52.58037 | -84.54911 | 39408 ft | 496 kts | 240° |
| 2026-05-05 16:45 | 52.54648 | -84.64795 | 39411 ft | 496 kts | 240° |
| 2026-05-05 16:46 | 52.51255 | -84.74657 | 39420 ft | 496 kts | 240° |
| 2026-05-05 16:46 | 52.47832 | -84.84565 | 39421 ft | 496 kts | 240° |
| 2026-05-05 16:47 | 52.44439 | -84.94342 | 39430 ft | 496 kts | 240° |
| 2026-05-05 16:47 | 52.41010 | -85.04183 | 39432 ft | 497 kts | 240° |
| 2026-05-05 16:48 | 52.37582 | -85.13994 | 39439 ft | 497 kts | 240° |
| 2026-05-05 16:48 | 52.34142 | -85.23806 | 39441 ft | 497 kts | 240° |
| 2026-05-05 16:49 | 52.30694 | -85.33590 | 39448 ft | 497 kts | 239° |
| 2026-05-05 16:49 | 52.27234 | -85.43365 | 39449 ft | 497 kts | 239° |
| 2026-05-05 16:50 | 52.23763 | -85.53134 | 39470 ft | 497 kts | 239° |
| 2026-05-05 16:50 | 52.20290 | -85.62872 | 39468 ft | 496 kts | 239° |
| 2026-05-05 16:51 | 52.16835 | -85.72531 | 39480 ft | 496 kts | 239° |
| 2026-05-05 16:51 | 52.13350 | -85.82240 | 39478 ft | 496 kts | 239° |
| 2026-05-05 16:52 | 52.09855 | -85.91930 | 39470 ft | 496 kts | 239° |
| 2026-05-05 16:52 | 52.06348 | -86.01611 | 39483 ft | 497 kts | 239° |
| 2026-05-05 16:53 | 52.02835 | -86.11277 | 39478 ft | 496 kts | 239° |
| 2026-05-05 16:53 | 51.99316 | -86.20915 | 39477 ft | 496 kts | 239° |
| 2026-05-05 16:54 | 51.95781 | -86.30567 | 39480 ft | 497 kts | 239° |
| 2026-05-05 16:54 | 51.92276 | -86.40111 | 39482 ft | 496 kts | 239° |
| 2026-05-05 16:55 | 51.88742 | -86.49688 | 39479 ft | 495 kts | 239° |
| 2026-05-05 16:55 | 51.85198 | -86.59250 | 39488 ft | 495 kts | 239° |
| 2026-05-05 16:56 | 51.81646 | -86.68809 | 39481 ft | 494 kts | 239° |
| 2026-05-05 16:56 | 51.78098 | -86.78321 | 39489 ft | 494 kts | 239° |
| 2026-05-05 16:57 | 51.74544 | -86.87816 | 39494 ft | 494 kts | 239° |
| 2026-05-05 16:57 | 51.71005 | -86.97237 | 39501 ft | 493 kts | 238° |
| 2026-05-05 16:58 | 51.67435 | -87.06694 | 39504 ft | 493 kts | 238° |
| 2026-05-05 16:58 | 51.63866 | -87.16110 | 39513 ft | 493 kts | 238° |
| 2026-05-05 16:59 | 51.60286 | -87.25525 | 39515 ft | 493 kts | 238° |
| 2026-05-05 16:59 | 51.56701 | -87.34923 | 39523 ft | 493 kts | 238° |
| 2026-05-05 17:00 | 51.53095 | -87.44347 | 39524 ft | 493 kts | 238° |
| 2026-05-05 17:00 | 51.49511 | -87.53672 | 39528 ft | 494 kts | 238° |
| 2026-05-05 17:01 | 51.45892 | -87.63051 | 39533 ft | 493 kts | 238° |
| 2026-05-05 17:01 | 51.42265 | -87.72422 | 39532 ft | 494 kts | 238° |
| 2026-05-05 17:02 | 51.38638 | -87.81755 | 39541 ft | 493 kts | 238° |
| 2026-05-05 17:02 | 51.35028 | -87.91009 | 39560 ft | 494 kts | 238° |
| 2026-05-05 17:03 | 51.31384 | -88.00320 | 39561 ft | 494 kts | 238° |
| 2026-05-05 17:03 | 51.27730 | -88.09621 | 39594 ft | 494 kts | 238° |
| 2026-05-05 17:04 | 51.24077 | -88.18892 | 39600 ft | 493 kts | 238° |
| 2026-05-05 17:04 | 51.20419 | -88.28135 | 39608 ft | 493 kts | 238° |
| 2026-05-05 17:05 | 51.16742 | -88.37395 | 39617 ft | 493 kts | 238° |
| 2026-05-05 17:05 | 51.13073 | -88.46602 | 39618 ft | 492 kts | 238° |
| 2026-05-05 17:06 | 51.09395 | -88.55796 | 39623 ft | 492 kts | 238° |
| 2026-05-05 17:06 | 51.05714 | -88.64982 | 39627 ft | 491 kts | 238° |
| 2026-05-05 17:07 | 51.02053 | -88.74078 | 39627 ft | 491 kts | 238° |
| 2026-05-05 17:07 | 50.98359 | -88.83209 | 39635 ft | 491 kts | 238° |
| 2026-05-05 17:08 | 50.94662 | -88.92318 | 39636 ft | 491 kts | 238° |
| 2026-05-05 17:08 | 50.90959 | -89.01419 | 39647 ft | 491 kts | 238° |
| 2026-05-05 17:09 | 50.87246 | -89.10509 | 39646 ft | 490 kts | 238° |
| 2026-05-05 17:09 | 50.83539 | -89.19554 | 39645 ft | 490 kts | 238° |
| 2026-05-05 17:10 | 50.79816 | -89.28617 | 39645 ft | 490 kts | 238° |
| 2026-05-05 17:10 | 50.76090 | -89.37646 | 39651 ft | 490 kts | 238° |
| 2026-05-05 17:11 | 50.72357 | -89.46655 | 39656 ft | 490 kts | 238° |
| 2026-05-05 17:11 | 50.68624 | -89.55637 | 39656 ft | 489 kts | 237° |
| 2026-05-05 17:12 | 50.64885 | -89.64602 | 39654 ft | 489 kts | 238° |
| 2026-05-05 17:12 | 50.61162 | -89.73500 | 39656 ft | 489 kts | 238° |
| 2026-05-05 17:13 | 50.57420 | -89.82415 | 39654 ft | 488 kts | 237° |
| 2026-05-05 17:13 | 50.53669 | -89.91320 | 39664 ft | 488 kts | 237° |
| 2026-05-05 17:14 | 50.49917 | -90.00200 | 39665 ft | 487 kts | 237° |
| 2026-05-05 17:14 | 50.45928 | -90.08805 | 39665 ft | 488 kts | 233° |
| 2026-05-05 17:15 | 50.41684 | -90.17130 | 39674 ft | 488 kts | 232° |
| 2026-05-05 17:15 | 50.37458 | -90.25468 | 39679 ft | 488 kts | 233° |
| 2026-05-05 17:16 | 50.33282 | -90.33835 | 39690 ft | 488 kts | 233° |
| 2026-05-05 17:16 | 50.29141 | -90.42162 | 39692 ft | 488 kts | 233° |
| 2026-05-05 17:17 | 50.24967 | -90.50539 | 39733 ft | 488 kts | 233° |
| 2026-05-05 17:17 | 50.20780 | -90.58901 | 39745 ft | 489 kts | 233° |
| 2026-05-05 17:18 | 50.16580 | -90.67258 | 39748 ft | 489 kts | 233° |
| 2026-05-05 17:18 | 50.12378 | -90.75596 | 39754 ft | 489 kts | 233° |
| 2026-05-05 17:19 | 50.08167 | -90.83922 | 39763 ft | 489 kts | 233° |
| 2026-05-05 17:19 | 50.03974 | -90.92187 | 39776 ft | 490 kts | 233° |
| 2026-05-05 17:20 | 49.99746 | -91.00496 | 39776 ft | 490 kts | 233° |
| 2026-05-05 17:20 | 49.95653 | -91.08924 | 39775 ft | 487 kts | 236° |
| 2026-05-05 17:21 | 49.91684 | -91.17431 | 39778 ft | 485 kts | 236° |
| 2026-05-05 17:22 | 49.85699 | -91.30111 | 39786 ft | 486 kts | 235° |
| 2026-05-05 17:22 | 49.81674 | -91.38524 | 39785 ft | 486 kts | 235° |
| 2026-05-05 17:23 | 49.77643 | -91.46917 | 39786 ft | 486 kts | 235° |
| 2026-05-05 17:23 | 49.73599 | -91.55315 | 39785 ft | 487 kts | 235° |
| 2026-05-05 17:24 | 49.69570 | -91.63654 | 39786 ft | 487 kts | 235° |
| 2026-05-05 17:24 | 49.66168 | -91.70674 | 39786 ft | 487 kts | 235° |
| 2026-05-05 17:25 | 49.62103 | -91.79040 | 39786 ft | 487 kts | 234° |
| 2026-05-05 17:25 | 49.58066 | -91.87328 | 39793 ft | 487 kts | 234° |
| 2026-05-05 17:26 | 49.53982 | -91.95681 | 39802 ft | 487 kts | 234° |
| 2026-05-05 17:26 | 49.49902 | -92.04005 | 39811 ft | 486 kts | 234° |
| 2026-05-05 17:27 | 49.45811 | -92.12316 | 39813 ft | 487 kts | 234° |
| 2026-05-05 17:27 | 49.41744 | -92.20557 | 39812 ft | 486 kts | 234° |
| 2026-05-05 17:28 | 49.37655 | -92.28814 | 39811 ft | 485 kts | 234° |
| 2026-05-05 17:28 | 49.33561 | -92.37060 | 39811 ft | 485 kts | 234° |
| 2026-05-05 17:29 | 49.29472 | -92.45267 | 39820 ft | 484 kts | 234° |
| 2026-05-05 17:29 | 49.25378 | -92.53458 | 39832 ft | 484 kts | 234° |
| 2026-05-05 17:30 | 49.21285 | -92.61627 | 39831 ft | 483 kts | 234° |
| 2026-05-05 17:30 | 49.17185 | -92.69779 | 39830 ft | 483 kts | 234° |
| 2026-05-05 17:31 | 49.13106 | -92.77866 | 39848 ft | 483 kts | 234° |
| 2026-05-05 17:31 | 49.09010 | -92.85967 | 39853 ft | 482 kts | 234° |
| 2026-05-05 17:32 | 49.04914 | -92.94044 | 39861 ft | 481 kts | 234° |
| 2026-05-05 17:32 | 49.00807 | -93.02116 | 39860 ft | 481 kts | 234° |
| 2026-05-05 17:33 | 48.96696 | -93.10169 | 39861 ft | 481 kts | 234° |
| 2026-05-05 17:33 | 48.92598 | -93.18170 | 39868 ft | 480 kts | 234° |
| 2026-05-05 17:34 | 48.88496 | -93.26158 | 39861 ft | 480 kts | 234° |
| 2026-05-05 17:34 | 48.84408 | -93.34098 | 39860 ft | 479 kts | 234° |
| 2026-05-05 17:35 | 48.80295 | -93.42060 | 39869 ft | 479 kts | 234° |
| 2026-05-05 17:35 | 48.76188 | -93.49991 | 39869 ft | 478 kts | 234° |
| 2026-05-05 17:36 | 48.72071 | -93.57915 | 39869 ft | 478 kts | 234° |
| 2026-05-05 17:36 | 48.67940 | -93.65839 | 39869 ft | 478 kts | 234° |
| 2026-05-05 17:37 | 48.63835 | -93.73693 | 39878 ft | 477 kts | 234° |
| 2026-05-05 17:37 | 48.59743 | -93.81498 | 39878 ft | 476 kts | 234° |
| 2026-05-05 17:38 | 48.55597 | -93.89383 | 39878 ft | 475 kts | 234° |
| 2026-05-05 17:38 | 48.51500 | -93.97156 | 39888 ft | 475 kts | 234° |
| 2026-05-05 17:39 | 48.47329 | -94.04906 | 39890 ft | 475 kts | 232° |
| 2026-05-05 17:39 | 48.42965 | -94.12411 | 39897 ft | 475 kts | 231° |
| 2026-05-05 17:40 | 48.38583 | -94.19863 | 39897 ft | 475 kts | 232° |
| 2026-05-05 17:40 | 48.34234 | -94.27333 | 39906 ft | 475 kts | 232° |
| 2026-05-05 17:41 | 48.29895 | -94.34805 | 39906 ft | 474 kts | 232° |
| 2026-05-05 17:41 | 48.25551 | -94.42271 | 39914 ft | 475 kts | 232° |
| 2026-05-05 17:42 | 48.21207 | -94.49712 | 39916 ft | 475 kts | 232° |
| 2026-05-05 17:42 | 48.16870 | -94.57126 | 39914 ft | 475 kts | 232° |
| 2026-05-05 17:43 | 48.12509 | -94.64559 | 39914 ft | 475 kts | 231° |
| 2026-05-05 17:43 | 48.08136 | -94.71993 | 39917 ft | 475 kts | 231° |
| 2026-05-05 17:44 | 48.03753 | -94.79419 | 39917 ft | 477 kts | 231° |
| 2026-05-05 17:44 | 47.99360 | -94.86841 | 39921 ft | 477 kts | 231° |
| 2026-05-05 17:45 | 47.94970 | -94.94234 | 39923 ft | 474 kts | 232° |
| 2026-05-05 17:45 | 47.90604 | -95.01565 | 39935 ft | 471 kts | 232° |
| 2026-05-05 17:46 | 47.86275 | -95.08822 | 39935 ft | 471 kts | 232° |
| 2026-05-05 17:46 | 47.81919 | -95.16103 | 39943 ft | 471 kts | 231° |
| 2026-05-05 17:47 | 47.77556 | -95.23375 | 39950 ft | 471 kts | 231° |
| 2026-05-05 17:47 | 47.73183 | -95.30642 | 39952 ft | 471 kts | 231° |
| 2026-05-05 17:48 | 47.68806 | -95.37895 | 39951 ft | 472 kts | 231° |
| 2026-05-05 17:48 | 47.64420 | -95.45145 | 39953 ft | 472 kts | 231° |
| 2026-05-05 17:49 | 47.60052 | -95.52347 | 39959 ft | 472 kts | 231° |
| 2026-05-05 17:49 | 47.55653 | -95.59578 | 39973 ft | 472 kts | 231° |
| 2026-05-05 17:50 | 47.51256 | -95.66786 | 39979 ft | 472 kts | 231° |
| 2026-05-05 17:50 | 47.46837 | -95.74012 | 39966 ft | 473 kts | 231° |
| 2026-05-05 17:51 | 47.42417 | -95.81221 | 39968 ft | 473 kts | 231° |
| 2026-05-05 17:51 | 47.38002 | -95.88398 | 39981 ft | 472 kts | 231° |
| 2026-05-05 17:52 | 47.33585 | -95.95560 | 39979 ft | 471 kts | 231° |
| 2026-05-05 17:52 | 47.29170 | -96.02702 | 39964 ft | 471 kts | 231° |
| 2026-05-05 17:53 | 47.24750 | -96.09835 | 39969 ft | 471 kts | 231° |
| 2026-05-05 17:53 | 47.20329 | -96.16946 | 39982 ft | 470 kts | 231° |
| 2026-05-05 17:54 | 47.15910 | -96.24037 | 39975 ft | 470 kts | 231° |
| 2026-05-05 17:54 | 47.11523 | -96.31059 | 39963 ft | 469 kts | 231° |
| 2026-05-05 17:55 | 47.07107 | -96.38111 | 39965 ft | 469 kts | 231° |
| 2026-05-05 17:55 | 47.02690 | -96.45141 | 39984 ft | 468 kts | 231° |
| 2026-05-05 17:56 | 46.98257 | -96.52109 | 39981 ft | 468 kts | 230° |
| 2026-05-05 17:56 | 46.93772 | -96.59008 | 39990 ft | 467 kts | 230° |
| 2026-05-05 17:57 | 46.89279 | -96.65905 | 39991 ft | 467 kts | 230° |
| 2026-05-05 17:57 | 46.84806 | -96.72778 | 39997 ft | 467 kts | 230° |
| 2026-05-05 17:58 | 46.80333 | -96.79643 | 39993 ft | 466 kts | 230° |
| 2026-05-05 17:58 | 46.75885 | -96.86453 | 39986 ft | 466 kts | 230° |
| 2026-05-05 17:59 | 46.71408 | -96.93288 | 39974 ft | 466 kts | 230° |
| 2026-05-05 17:59 | 46.66927 | -97.00111 | 39977 ft | 466 kts | 230° |
| 2026-05-05 18:00 | 46.63572 | -97.05207 | 39981 ft | 465 kts | 230° |
| 2026-05-05 18:00 | 46.58337 | -97.13142 | 39984 ft | 465 kts | 230° |
| 2026-05-05 18:01 | 46.53859 | -97.19907 | 39983 ft | 465 kts | 230° |
| 2026-05-05 18:01 | 46.49373 | -97.26671 | 39979 ft | 464 kts | 230° |
| 2026-05-05 18:02 | 46.44913 | -97.33378 | 39987 ft | 464 kts | 230° |
| 2026-05-05 18:02 | 46.40430 | -97.40105 | 39993 ft | 463 kts | 230° |
| 2026-05-05 18:03 | 46.35952 | -97.46804 | 39990 ft | 462 kts | 230° |
| 2026-05-05 18:03 | 46.31465 | -97.53499 | 39985 ft | 462 kts | 230° |
| 2026-05-05 18:04 | 46.26992 | -97.60156 | 39988 ft | 461 kts | 230° |
| 2026-05-05 18:04 | 46.22539 | -97.66767 | 39990 ft | 461 kts | 230° |
| 2026-05-05 18:05 | 46.18065 | -97.73394 | 39989 ft | 460 kts | 230° |
| 2026-05-05 18:05 | 46.13605 | -97.79984 | 39991 ft | 458 kts | 230° |
| 2026-05-05 18:06 | 46.09153 | -97.86549 | 39993 ft | 457 kts | 230° |
| 2026-05-05 18:06 | 46.04706 | -97.93091 | 39993 ft | 457 kts | 230° |
| 2026-05-05 18:07 | 46.00249 | -97.99630 | 39990 ft | 457 kts | 230° |
| 2026-05-05 18:07 | 45.96019 | -98.06416 | 39990 ft | 454 kts | 235° |
| 2026-05-05 18:08 | 45.92086 | -98.13501 | 39992 ft | 454 kts | 235° |
| 2026-05-05 18:08 | 45.88128 | -98.20576 | 39993 ft | 454 kts | 234° |
| 2026-05-05 18:09 | 45.84116 | -98.27575 | 39990 ft | 454 kts | 234° |
| 2026-05-05 18:09 | 45.80077 | -98.34533 | 39991 ft | 453 kts | 234° |
| 2026-05-05 18:10 | 45.76718 | -98.40304 | 40000 ft | 453 kts | 234° |
| 2026-05-05 18:10 | 45.72026 | -98.48351 | 40006 ft | 452 kts | 234° |